Time;durP1;ratioP1;P1;durP2;ratioP2;P2;SDS_P1;SDS_P2;PMS_P1;PMS_P2;Temp;Humidity;BMP_temperature;BMP_pressure;BME280_temperature;BME280_humidity;BME280_pressure;Samples;Min_cycle;Max_cycle;Signal;HPM_P1;HPM_P2
2021/09/09 00:01:16;;;;;;;10.63;6.03;;;;;;;;;;4948108;28;21082;-62
2021/09/09 00:03:43;;;;;;;10.60;5.22;;;;;;;;;;4955289;28;20133;-61
2021/09/09 00:06:09;;;;;;;12.50;5.32;;;;;;;;;;4937815;28;20089;-62
2021/09/09 00:08:34;;;;;;;15.00;5.95;;;;;;;;;;4929694;28;20154;-63
2021/09/09 00:11:02;;;;;;;12.57;6.45;;;;;;;;;;4940161;28;20049;-63
2021/09/09 00:13:30;;;;;;;9.57;4.97;;;;;;;;;;4935581;28;20085;-62
2021/09/09 00:16:00;;;;;;;10.77;6.20;;;;;;;;;;4936347;28;20042;-63
2021/09/09 00:18:30;;;;;;;9.13;5.70;;;;;;;;;;4953080;28;20644;-62
2021/09/09 00:20:58;;;;;;;12.93;5.72;;;;;;;;;;4945519;28;20701;-62
2021/09/09 00:23:23;;;;;;;12.80;5.93;;;;;;;;;;4952482;28;20058;-62
2021/09/09 00:25:49;;;;;;;12.85;6.05;;;;;;;;;;4922881;28;20055;-62
2021/09/09 00:28:17;;;;;;;11.45;6.40;;;;;;;;;;4939054;28;20166;-63
2021/09/09 00:30:47;;;;;;;8.93;6.05;;;;;;;;;;4937506;28;20047;-60
2021/09/09 00:33:13;;;;;;;11.15;5.60;;;;;;;;;;4923329;28;20558;-63
2021/09/09 00:35:43;;;;;;;10.23;5.95;;;;;;;;;;4920993;28;20042;-62
2021/09/09 00:38:11;;;;;;;8.48;6.00;;;;;;;;;;4952538;28;20042;-62
2021/09/09 00:40:41;;;;;;;8.95;5.25;;;;;;;;;;4936075;28;20034;-63
2021/09/09 00:43:09;;;;;;;10.15;5.70;;;;;;;;;;4936478;28;20035;-62
2021/09/09 00:45:34;;;;;;;14.02;5.93;;;;;;;;;;4946517;28;20023;-62
2021/09/09 00:48:05;;;;;;;9.68;5.65;;;;;;;;;;4937605;28;20660;-61
2021/09/09 00:50:35;;;;;;;13.85;6.90;;;;;;;;;;4939392;28;20062;-62
2021/09/09 00:53:03;;;;;;;18.10;5.93;;;;;;;;;;4937314;28;20435;-62
2021/09/09 00:55:31;;;;;;;7.93;5.35;;;;;;;;;;4922981;28;20125;-62
2021/09/09 00:57:57;;;;;;;10.68;5.97;;;;;;;;;;4927572;28;20047;-61
2021/09/09 01:00:27;;;;;;;11.45;5.97;;;;;;;;;;4905343;28;20035;-61
2021/09/09 01:03:00;;;;;;;10.88;6.25;;;;;;;;;;4936627;28;20126;-62
2021/09/09 01:05:25;;;;;;;12.63;5.93;;;;;;;;;;4953183;28;20099;-63
2021/09/09 01:07:53;;;;;;;9.30;6.00;;;;;;;;;;4927662;28;20126;-63
2021/09/09 01:10:23;;;;;;;12.98;5.55;;;;;;;;;;4922897;28;20093;-62
2021/09/09 01:12:49;;;;;;;10.73;6.03;;;;;;;;;;4935861;28;20035;-62
2021/09/09 01:15:17;;;;;;;13.15;6.75;;;;;;;;;;4939302;28;20034;-62
2021/09/09 01:17:44;;;;;;;11.50;6.65;;;;;;;;;;4939566;28;20122;-62
2021/09/09 01:20:11;;;;;;;10.38;6.50;;;;;;;;;;4923637;28;20424;-62
2021/09/09 01:22:36;;;;;;;12.13;6.85;;;;;;;;;;4934520;28;20035;-62
2021/09/09 01:25:02;;;;;;;12.07;6.25;;;;;;;;;;4920597;28;20414;-62
2021/09/09 01:27:30;;;;;;;17.15;6.47;;;;;;;;;;4944700;28;20580;-61
2021/09/09 01:29:56;;;;;;;13.45;7.05;;;;;;;;;;4936284;28;20051;-62
2021/09/09 01:32:22;;;;;;;16.67;6.95;;;;;;;;;;4935413;28;20085;-62
2021/09/09 01:34:50;;;;;;;10.82;6.28;;;;;;;;;;4937060;28;20106;-62
2021/09/09 01:37:20;;;;;;;12.80;6.72;;;;;;;;;;4925932;28;20039;-61
2021/09/09 01:39:46;;;;;;;11.65;6.47;;;;;;;;;;4937596;28;20039;-62
2021/09/09 01:42:12;;;;;;;11.98;6.70;;;;;;;;;;4939819;28;20086;-63
2021/09/09 01:44:40;;;;;;;12.48;6.70;;;;;;;;;;4951170;28;20035;-61
2021/09/09 01:47:05;;;;;;;19.63;7.25;;;;;;;;;;4937056;28;20051;-61
2021/09/09 01:49:36;;;;;;;11.77;6.70;;;;;;;;;;4926878;28;20046;-62
2021/09/09 01:52:04;;;;;;;16.50;7.30;;;;;;;;;;4951719;28;20126;-62
2021/09/09 01:54:32;;;;;;;13.70;7.00;;;;;;;;;;4936761;28;20037;-62
2021/09/09 01:57:00;;;;;;;10.50;6.97;;;;;;;;;;4936381;28;20039;-62
2021/09/09 01:59:28;;;;;;;12.25;7.32;;;;;;;;;;4942563;28;20042;-62
2021/09/09 02:01:58;;;;;;;11.63;7.32;;;;;;;;;;4939497;28;20030;-61
2021/09/09 02:04:28;;;;;;;12.82;7.35;;;;;;;;;;4942207;28;20086;-61
2021/09/09 02:06:56;;;;;;;11.68;6.32;;;;;;;;;;4938435;28;20049;-62
2021/09/09 02:09:26;;;;;;;18.77;7.97;;;;;;;;;;4924352;28;20031;-62
2021/09/09 02:11:54;;;;;;;11.93;6.90;;;;;;;;;;4946323;28;20475;-62
2021/09/09 02:14:25;;;;;;;12.45;7.47;;;;;;;;;;4923410;28;20118;-62
2021/09/09 02:16:52;;;;;;;12.95;7.60;;;;;;;;;;4940756;28;20061;-62
2021/09/09 02:19:17;;;;;;;15.57;7.43;;;;;;;;;;4957731;28;20086;-62
2021/09/09 02:21:45;;;;;;;13.13;6.90;;;;;;;;;;4928987;28;20031;-62
2021/09/09 02:24:13;;;;;;;13.90;7.90;;;;;;;;;;4947609;28;20792;-62
2021/09/09 02:26:41;;;;;;;12.88;7.88;;;;;;;;;;4940026;28;20688;-62
2021/09/09 02:29:08;;;;;;;20.85;7.15;;;;;;;;;;4939432;28;20876;-63
2021/09/09 02:31:36;;;;;;;15.27;7.90;;;;;;;;;;4928650;28;20062;-61
2021/09/09 02:34:04;;;;;;;14.32;7.30;;;;;;;;;;4941331;28;20062;-61
2021/09/09 02:36:32;;;;;;;13.27;6.65;;;;;;;;;;4923756;28;20275;-61
2021/09/09 02:39:00;;;;;;;16.75;7.65;;;;;;;;;;4906721;28;20922;-61
2021/09/09 02:41:28;;;;;;;15.25;8.10;;;;;;;;;;4926662;28;20035;-61
2021/09/09 02:44:03;;;;;;;14.55;7.78;;;;;;;;;;4953278;28;20648;-62
2021/09/09 02:46:31;;;;;;;11.20;7.60;;;;;;;;;;4939061;28;20122;-62
2021/09/09 02:48:57;;;;;;;14.38;8.15;;;;;;;;;;4937543;28;20023;-62
2021/09/09 02:51:27;;;;;;;11.55;7.18;;;;;;;;;;4929005;28;21314;-62
2021/09/09 02:53:55;;;;;;;15.35;7.70;;;;;;;;;;4938825;28;20042;-62
2021/09/09 02:56:21;;;;;;;18.92;7.80;;;;;;;;;;4940287;28;20152;-61
2021/09/09 02:58:46;;;;;;;12.90;7.68;;;;;;;;;;4923618;28;20202;-62
2021/09/09 03:01:14;;;;;;;17.40;8.35;;;;;;;;;;4908299;28;20058;-63
2021/09/09 03:03:40;;;;;;;11.60;7.55;;;;;;;;;;4938435;28;20178;-62
2021/09/09 03:06:10;;;;;;;17.33;8.57;;;;;;;;;;4927625;28;20045;-62
2021/09/09 03:08:38;;;;;;;15.30;8.18;;;;;;;;;;4954813;28;20035;-62
2021/09/09 03:11:06;;;;;;;18.20;8.25;;;;;;;;;;4928714;28;20070;-62
2021/09/09 03:13:34;;;;;;;17.00;9.10;;;;;;;;;;4944028;28;20035;-62
2021/09/09 03:16:01;;;;;;;15.82;8.35;;;;;;;;;;4936922;28;20624;-62
2021/09/09 03:18:27;;;;;;;14.35;7.70;;;;;;;;;;4943933;28;20038;-62
2021/09/09 03:20:56;;;;;;;17.98;8.75;;;;;;;;;;4940828;28;20566;-62
2021/09/09 03:23:23;;;;;;;18.33;8.30;;;;;;;;;;4936695;28;20130;-62
2021/09/09 03:25:52;;;;;;;14.93;8.52;;;;;;;;;;4923137;28;20038;-61
2021/09/09 03:28:20;;;;;;;14.20;9.70;;;;;;;;;;4938550;28;20138;-62
2021/09/09 03:30:48;;;;;;;22.98;10.25;;;;;;;;;;4939538;28;20473;-60
2021/09/09 03:33:13;;;;;;;19.70;9.35;;;;;;;;;;4922483;28;20815;-62
2021/09/09 03:35:42;;;;;;;20.20;10.15;;;;;;;;;;4940415;28;20064;-62
2021/09/09 03:38:12;;;;;;;19.40;10.45;;;;;;;;;;4910507;28;20039;-60
2021/09/09 03:40:42;;;;;;;21.55;11.15;;;;;;;;;;4938675;28;20658;-63
2021/09/09 03:43:11;;;;;;;19.75;10.60;;;;;;;;;;4935775;28;20047;-62
2021/09/09 03:45:41;;;;;;;22.65;9.77;;;;;;;;;;4954284;28;20030;-61
2021/09/09 03:48:09;;;;;;;23.42;10.43;;;;;;;;;;4937807;28;20063;-62
2021/09/09 03:50:37;;;;;;;24.92;11.35;;;;;;;;;;4927328;28;20046;-62
2021/09/09 03:53:05;;;;;;;20.27;11.88;;;;;;;;;;4938673;28;20560;-61
2021/09/09 03:55:33;;;;;;;20.35;10.05;;;;;;;;;;4955068;28;20475;-62
2021/09/09 03:58:03;;;;;;;17.50;10.13;;;;;;;;;;4937193;28;20095;-62
2021/09/09 04:00:31;;;;;;;21.98;10.75;;;;;;;;;;4941358;28;20077;-61
2021/09/09 04:03:03;;;;;;;22.67;10.57;;;;;;;;;;4938211;28;20023;-61
2021/09/09 04:05:30;;;;;;;18.92;10.85;;;;;;;;;;4928836;28;20541;-62
2021/09/09 04:07:58;;;;;;;20.98;10.73;;;;;;;;;;4953454;28;20027;-62
2021/09/09 04:10:26;;;;;;;20.33;9.77;;;;;;;;;;4952864;28;20051;-61
2021/09/09 04:12:57;;;;;;;21.05;10.70;;;;;;;;;;4939692;28;20023;-62
2021/09/09 04:15:25;;;;;;;18.80;10.60;;;;;;;;;;4941026;28;20082;-61
2021/09/09 04:17:50;;;;;;;18.52;10.38;;;;;;;;;;4929753;28;20031;-63
2021/09/09 04:20:18;;;;;;;19.60;10.63;;;;;;;;;;4928862;28;20118;-61
2021/09/09 04:22:48;;;;;;;16.50;9.65;;;;;;;;;;4920887;28;20046;-62
2021/09/09 04:25:16;;;;;;;26.30;10.65;;;;;;;;;;4922943;28;20059;-63
2021/09/09 04:27:43;;;;;;;25.15;10.13;;;;;;;;;;4920793;28;20118;-62
2021/09/09 04:30:14;;;;;;;23.52;10.70;;;;;;;;;;4952050;28;20121;-62
2021/09/09 04:32:42;;;;;;;20.35;10.07;;;;;;;;;;4936349;28;20043;-63
2021/09/09 04:35:07;;;;;;;21.08;10.43;;;;;;;;;;4936302;28;20597;-64
2021/09/09 04:37:38;;;;;;;18.77;10.27;;;;;;;;;;4938058;28;20063;-62
2021/09/09 04:40:06;;;;;;;17.50;10.93;;;;;;;;;;4937488;28;20030;-63
2021/09/09 04:42:32;;;;;;;21.35;10.38;;;;;;;;;;4936869;28;20031;-62
2021/09/09 04:44:58;;;;;;;19.58;11.07;;;;;;;;;;4939863;28;20121;-62
2021/09/09 04:47:26;;;;;;;26.38;11.38;;;;;;;;;;4924357;28;20042;-62
2021/09/09 04:49:54;;;;;;;18.63;10.32;;;;;;;;;;4937954;28;20170;-62
2021/09/09 04:52:24;;;;;;;20.13;11.07;;;;;;;;;;4921443;28;20681;-62
2021/09/09 04:54:54;;;;;;;21.52;10.75;;;;;;;;;;4952751;28;20046;-61
2021/09/09 04:57:22;;;;;;;22.88;11.30;;;;;;;;;;4938141;28;20071;-61
2021/09/09 04:59:48;;;;;;;21.23;12.13;;;;;;;;;;4937167;28;20044;-63
2021/09/09 05:02:14;;;;;;;26.33;10.73;;;;;;;;;;4938691;28;20042;-62
2021/09/09 05:04:42;;;;;;;23.02;11.25;;;;;;;;;;4910179;28;20085;-61
2021/09/09 05:07:10;;;;;;;22.40;10.90;;;;;;;;;;4934605;28;20039;-63
2021/09/09 05:09:38;;;;;;;23.25;11.93;;;;;;;;;;4953594;28;20063;-62
2021/09/09 05:12:06;;;;;;;22.23;12.10;;;;;;;;;;4935938;28;20035;-62
2021/09/09 05:14:35;;;;;;;22.23;11.88;;;;;;;;;;4918229;28;20027;-61
2021/09/09 05:17:00;;;;;;;29.77;11.38;;;;;;;;;;4927798;28;20040;-62
2021/09/09 05:19:27;;;;;;;22.10;11.18;;;;;;;;;;4904779;28;20042;-61
2021/09/09 05:21:54;;;;;;;20.88;10.98;;;;;;;;;;4952297;28;20145;-61
2021/09/09 05:24:22;;;;;;;23.40;10.98;;;;;;;;;;4924080;28;20034;-61
2021/09/09 05:26:47;;;;;;;22.15;10.35;;;;;;;;;;4909910;28;20035;-61
2021/09/09 05:29:15;;;;;;;21.90;10.65;;;;;;;;;;4925138;28;20038;-61
2021/09/09 05:31:43;;;;;;;21.40;10.57;;;;;;;;;;4936470;28;20086;-61
2021/09/09 05:34:11;;;;;;;19.95;10.93;;;;;;;;;;4934004;28;20110;-61
2021/09/09 05:36:36;;;;;;;25.13;11.15;;;;;;;;;;4927277;28;20114;-61
2021/09/09 05:39:04;;;;;;;23.25;11.27;;;;;;;;;;4940276;28;20351;-61
2021/09/09 05:41:32;;;;;;;18.95;10.45;;;;;;;;;;4936723;28;20035;-61
2021/09/09 05:44:01;;;;;;;25.27;10.02;;;;;;;;;;4937171;28;20143;-61
2021/09/09 05:46:26;;;;;;;18.38;9.40;;;;;;;;;;4953653;28;20126;-62
2021/09/09 05:48:51;;;;;;;19.52;10.65;;;;;;;;;;4924576;28;20051;-61
2021/09/09 05:51:17;;;;;;;20.77;10.63;;;;;;;;;;4937189;28;20039;-61
2021/09/09 05:53:42;;;;;;;15.60;9.20;;;;;;;;;;4936296;28;20019;-62
2021/09/09 05:56:14;;;;;;;16.23;9.75;;;;;;;;;;4935991;28;20028;-61
2021/09/09 05:58:40;;;;;;;18.40;9.70;;;;;;;;;;4935332;28;20038;-62
2021/09/09 06:01:07;;;;;;;21.88;9.20;;;;;;;;;;4937656;28;20035;-61
2021/09/09 06:03:34;;;;;;;15.07;9.02;;;;;;;;;;4952369;28;20552;-61
2021/09/09 06:06:04;;;;;;;16.25;9.18;;;;;;;;;;4936741;28;20019;-62
2021/09/09 06:08:33;;;;;;;16.52;8.40;;;;;;;;;;4937218;28;20837;-62
2021/09/09 06:11:00;;;;;;;14.90;8.60;;;;;;;;;;4937003;28;20953;-61
2021/09/09 06:13:28;;;;;;;16.67;8.45;;;;;;;;;;4918005;28;20047;-62
2021/09/09 06:15:56;;;;;;;18.88;8.70;;;;;;;;;;4935589;28;20110;-61
2021/09/09 06:18:24;;;;;;;24.13;8.52;;;;;;;;;;4937568;28;20034;-61
2021/09/09 06:20:50;;;;;;;15.48;8.23;;;;;;;;;;4938458;28;20544;-61
2021/09/09 06:23:18;;;;;;;20.50;9.25;;;;;;;;;;4919484;28;20034;-63
2021/09/09 06:25:46;;;;;;;17.30;8.73;;;;;;;;;;4936196;28;20071;-62
2021/09/09 06:28:12;;;;;;;21.23;8.20;;;;;;;;;;4934494;28;20035;-62
2021/09/09 06:30:37;;;;;;;18.17;9.68;;;;;;;;;;4937454;28;20047;-62
2021/09/09 06:33:05;;;;;;;15.02;9.35;;;;;;;;;;4935631;28;20050;-63
2021/09/09 06:35:33;;;;;;;15.43;8.38;;;;;;;;;;4936023;28;20122;-62
2021/09/09 06:38:01;;;;;;;13.93;8.13;;;;;;;;;;4935515;28;20038;-62
2021/09/09 06:40:29;;;;;;;14.48;8.90;;;;;;;;;;4935713;28;20043;-61
2021/09/09 06:42:54;;;;;;;16.30;9.35;;;;;;;;;;4950195;28;20055;-61
2021/09/09 06:45:22;;;;;;;14.15;9.27;;;;;;;;;;4939797;28;20046;-62
2021/09/09 06:47:50;;;;;;;17.30;8.98;;;;;;;;;;4938077;28;20066;-62
2021/09/09 06:50:15;;;;;;;23.20;8.57;;;;;;;;;;4938366;28;20423;-62
2021/09/09 06:52:44;;;;;;;17.58;8.82;;;;;;;;;;4939919;28;20035;-62
2021/09/09 06:55:10;;;;;;;12.68;7.53;;;;;;;;;;4940336;28;20090;-61
2021/09/09 06:57:38;;;;;;;16.58;8.85;;;;;;;;;;4939322;28;21996;-62
2021/09/09 07:00:04;;;;;;;14.20;8.00;;;;;;;;;;4955012;28;20137;-62
2021/09/09 07:02:32;;;;;;;13.75;8.75;;;;;;;;;;4937343;28;20122;-62
2021/09/09 07:04:58;;;;;;;15.30;9.13;;;;;;;;;;4947091;28;20046;-63
2021/09/09 07:07:25;;;;;;;17.23;8.20;;;;;;;;;;4937107;28;20043;-62
2021/09/09 07:09:53;;;;;;;17.88;9.40;;;;;;;;;;4946480;28;20042;-62
2021/09/09 07:12:21;;;;;;;14.95;7.53;;;;;;;;;;4939782;28;20153;-62
2021/09/09 07:14:49;;;;;;;17.30;8.20;;;;;;;;;;4928027;28;20047;-62
2021/09/09 07:17:15;;;;;;;14.70;8.27;;;;;;;;;;4937907;28;20031;-63
2021/09/09 07:19:40;;;;;;;17.33;9.30;;;;;;;;;;4938196;28;20035;-63
2021/09/09 07:22:06;;;;;;;10.55;7.75;;;;;;;;;;4927052;28;20037;-63
2021/09/09 07:24:36;;;;;;;15.82;8.90;;;;;;;;;;4922647;28;20039;-63
2021/09/09 07:27:01;;;;;;;16.27;7.78;;;;;;;;;;4952700;28;20035;-62
2021/09/09 07:29:27;;;;;;;12.65;7.45;;;;;;;;;;4925916;28;20031;-62
2021/09/09 07:31:55;;;;;;;11.25;7.35;;;;;;;;;;4922841;28;20117;-62
2021/09/09 07:34:23;;;;;;;13.30;7.78;;;;;;;;;;4953080;28;20054;-62
2021/09/09 07:36:53;;;;;;;13.52;7.68;;;;;;;;;;4928034;28;20039;-62
2021/09/09 07:39:21;;;;;;;15.73;7.95;;;;;;;;;;4937804;28;20845;-63
2021/09/09 07:41:46;;;;;;;16.58;8.55;;;;;;;;;;4910348;28;20510;-63
2021/09/09 07:44:16;;;;;;;14.35;7.03;;;;;;;;;;4920265;28;20060;-62
2021/09/09 07:46:42;;;;;;;18.35;8.80;;;;;;;;;;4954262;28;21988;-62
2021/09/09 07:49:11;;;;;;;17.30;7.90;;;;;;;;;;4935652;28;20034;-63
2021/09/09 07:51:39;;;;;;;13.18;7.03;;;;;;;;;;4944452;28;20038;-63
2021/09/09 07:54:07;;;;;;;15.85;7.90;;;;;;;;;;4914694;28;20045;-63
2021/09/09 07:56:37;;;;;;;13.75;8.35;;;;;;;;;;4921884;28;20047;-62
2021/09/09 07:59:03;;;;;;;13.73;8.07;;;;;;;;;;4938717;28;20081;-63
2021/09/09 08:01:31;;;;;;;11.52;7.65;;;;;;;;;;4912331;28;20125;-64
2021/09/09 08:03:59;;;;;;;16.40;8.05;;;;;;;;;;4938741;28;20575;-61
2021/09/09 08:06:24;;;;;;;10.45;7.65;;;;;;;;;;4936880;28;20032;-61
2021/09/09 08:08:52;;;;;;;15.75;8.02;;;;;;;;;;4936588;28;20031;-61
2021/09/09 08:11:20;;;;;;;19.13;7.57;;;;;;;;;;4938697;28;20042;-62
2021/09/09 08:13:52;;;;;;;9.82;7.15;;;;;;;;;;4936286;28;20105;-63
2021/09/09 08:16:22;;;;;;;15.25;7.32;;;;;;;;;;4936142;28;20050;-63
2021/09/09 08:18:50;;;;;;;13.68;6.95;;;;;;;;;;4937230;28;20118;-63
2021/09/09 08:21:18;;;;;;;12.20;7.47;;;;;;;;;;4937164;28;20026;-63
2021/09/09 08:23:46;;;;;;;10.75;7.25;;;;;;;;;;4938956;28;20043;-63
2021/09/09 08:26:14;;;;;;;16.02;6.65;;;;;;;;;;4939432;28;20727;-63
2021/09/09 08:28:42;;;;;;;11.75;6.55;;;;;;;;;;4937376;28;20031;-63
2021/09/09 08:31:07;;;;;;;9.90;6.93;;;;;;;;;;4924801;28;20086;-63
2021/09/09 08:33:38;;;;;;;11.13;6.88;;;;;;;;;;4910343;28;20055;-63
2021/09/09 08:36:12;;;;;;;19.27;7.72;;;;;;;;;;4921734;28;20055;-63
2021/09/09 08:38:37;;;;;;;10.30;7.38;;;;;;;;;;4935783;28;20733;-65
2021/09/09 08:41:03;;;;;;;11.48;6.63;;;;;;;;;;4952086;28;20030;-63
2021/09/09 08:43:31;;;;;;;11.32;6.97;;;;;;;;;;4939134;28;20031;-61
2021/09/09 08:46:03;;;;;;;10.82;6.72;;;;;;;;;;4934904;28;20655;-63
2021/09/09 08:48:31;;;;;;;13.30;6.47;;;;;;;;;;4938309;28;20764;-63
2021/09/09 08:50:57;;;;;;;12.45;5.82;;;;;;;;;;4938492;28;20122;-63
2021/09/09 08:53:23;;;;;;;11.82;6.53;;;;;;;;;;4937290;28;20170;-64
2021/09/09 08:55:49;;;;;;;14.50;7.20;;;;;;;;;;4952841;28;20858;-64
2021/09/09 08:58:15;;;;;;;10.80;7.07;;;;;;;;;;4935738;28;20537;-63
2021/09/09 09:01:10;;;;;;;11.73;7.05;;;;;;;;;;4951259;28;20042;-64
2021/09/09 09:03:43;;;;;;;11.23;6.47;;;;;;;;;;4930302;28;20043;-64
2021/09/09 09:06:27;;;;;;;10.40;6.15;;;;;;;;;;4937003;28;20043;-63
2021/09/09 09:08:56;;;;;;;16.67;6.13;;;;;;;;;;4953386;28;20039;-63
2021/09/09 09:11:27;;;;;;;20.58;6.53;;;;;;;;;;4951831;28;20034;-61
2021/09/09 09:14:04;;;;;;;11.52;6.47;;;;;;;;;;4936414;28;20110;-62
2021/09/09 09:16:29;;;;;;;7.38;5.85;;;;;;;;;;4951273;28;20257;-63
2021/09/09 09:18:58;;;;;;;8.25;5.63;;;;;;;;;;4913728;28;20655;-63
2021/09/09 09:21:24;;;;;;;9.57;5.75;;;;;;;;;;4944296;28;20641;-63
2021/09/09 09:23:51;;;;;;;9.60;6.18;;;;;;;;;;4951165;28;20059;-63
2021/09/09 09:26:19;;;;;;;14.77;6.00;;;;;;;;;;4939167;28;20034;-62
2021/09/09 09:28:49;;;;;;;11.73;6.28;;;;;;;;;;4921044;28;20030;-62
2021/09/09 09:31:16;;;;;;;10.50;6.25;;;;;;;;;;4945360;28;20019;-63
2021/09/09 09:33:50;;;;;;;11.40;6.07;;;;;;;;;;4952599;28;20781;-62
2021/09/09 09:36:24;;;;;;;15.40;6.28;;;;;;;;;;4954412;28;21672;-62
2021/09/09 09:39:04;;;;;;;8.60;5.63;;;;;;;;;;4935796;28;20043;-62
2021/09/09 09:41:34;;;;;;;14.88;5.97;;;;;;;;;;4938060;28;20023;-62
2021/09/09 09:44:03;;;;;;;9.40;6.10;;;;;;;;;;4953423;28;20045;-63
2021/09/09 09:46:32;;;;;;;8.80;5.57;;;;;;;;;;4937715;28;20037;-62
2021/09/09 09:49:17;;;;;;;10.02;4.68;;;;;;;;;;4952942;28;20031;-63
2021/09/09 09:51:46;;;;;;;12.05;5.38;;;;;;;;;;4944011;28;20119;-62
2021/09/09 09:54:16;;;;;;;7.90;5.38;;;;;;;;;;4937090;28;20034;-62
2021/09/09 09:56:47;;;;;;;11.98;5.07;;;;;;;;;;4937689;28;20039;-62
2021/09/09 09:59:13;;;;;;;7.15;5.22;;;;;;;;;;4941934;28;20039;-64
2021/09/09 10:01:41;;;;;;;7.13;5.05;;;;;;;;;;4937838;28;20060;-63
2021/09/09 10:04:10;;;;;;;10.63;5.53;;;;;;;;;;4953194;28;20038;-63
2021/09/09 10:06:36;;;;;;;12.63;5.72;;;;;;;;;;4944785;28;20038;-63
2021/09/09 10:09:03;;;;;;;11.15;4.90;;;;;;;;;;4951374;28;20114;-64
2021/09/09 10:11:29;;;;;;;10.15;5.10;;;;;;;;;;4937175;28;20053;-63
2021/09/09 10:13:59;;;;;;;12.50;4.25;;;;;;;;;;4952286;28;20035;-64
2021/09/09 10:16:27;;;;;;;9.27;4.60;;;;;;;;;;4936081;28;22198;-64
2021/09/09 10:18:53;;;;;;;6.97;4.53;;;;;;;;;;4939542;28;20043;-63
2021/09/09 10:21:35;;;;;;;7.53;4.50;;;;;;;;;;4942300;28;20094;-63
2021/09/09 10:24:09;;;;;;;10.88;4.53;;;;;;;;;;4947883;28;20134;-63
2021/09/09 10:26:43;;;;;;;8.57;4.53;;;;;;;;;;4937704;28;22319;-63
2021/09/09 10:29:29;;;;;;;5.97;4.25;;;;;;;;;;4942024;28;20035;-63
2021/09/09 10:31:59;;;;;;;14.48;4.75;;;;;;;;;;4939467;28;20642;-63
2021/09/09 10:34:27;;;;;;;7.57;4.75;;;;;;;;;;4940926;28;20114;-63
2021/09/09 10:36:58;;;;;;;7.70;4.55;;;;;;;;;;4937930;28;20042;-63
2021/09/09 10:39:36;;;;;;;9.35;4.82;;;;;;;;;;4942035;28;20153;-63
2021/09/09 10:42:22;;;;;;;12.70;4.50;;;;;;;;;;4939393;28;20046;-62
2021/09/09 10:44:50;;;;;;;7.20;4.35;;;;;;;;;;4940045;28;20034;-63
2021/09/09 10:47:22;;;;;;;7.47;4.28;;;;;;;;;;4920921;28;21758;-63
2021/09/09 10:49:59;;;;;;;7.80;4.18;;;;;;;;;;4956070;28;20035;-63
2021/09/09 10:52:25;;;;;;;6.50;4.22;;;;;;;;;;4941345;28;20031;-62
2021/09/09 10:55:02;;;;;;;7.27;4.03;;;;;;;;;;4940901;28;20131;-63
2021/09/09 10:57:30;;;;;;;4.25;3.63;;;;;;;;;;4954452;28;20329;-62
2021/09/09 10:59:58;;;;;;;9.73;4.60;;;;;;;;;;4954837;28;20039;-62
2021/09/09 11:02:24;;;;;;;4.60;3.60;;;;;;;;;;4938567;28;20114;-63
2021/09/09 11:04:53;;;;;;;4.07;3.20;;;;;;;;;;4945262;28;20513;-64
2021/09/09 11:07:27;;;;;;;9.43;4.68;;;;;;;;;;4922469;28;20023;-63
2021/09/09 11:10:05;;;;;;;9.60;3.83;;;;;;;;;;4955648;28;20487;-63
2021/09/09 11:12:38;;;;;;;5.13;3.83;;;;;;;;;;4938612;28;20035;-63
2021/09/09 11:15:04;;;;;;;5.00;3.30;;;;;;;;;;4941248;28;20501;-64
2021/09/09 11:17:30;;;;;;;5.68;3.50;;;;;;;;;;4924987;28;20045;-63
2021/09/09 11:19:59;;;;;;;9.85;3.72;;;;;;;;;;4938513;28;20039;-64
2021/09/09 11:22:26;;;;;;;8.30;3.80;;;;;;;;;;4955555;28;22008;-62
2021/09/09 11:24:58;;;;;;;9.63;3.55;;;;;;;;;;4941246;28;20062;-62
2021/09/09 11:27:27;;;;;;;4.65;3.42;;;;;;;;;;4938315;28;22075;-63
2021/09/09 11:29:59;;;;;;;4.82;3.30;;;;;;;;;;4955626;28;20046;-66
2021/09/09 11:32:28;;;;;;;12.48;3.80;;;;;;;;;;4936801;28;20569;-64
2021/09/09 11:35:04;;;;;;;9.32;3.33;;;;;;;;;;4940212;28;21024;-61
2021/09/09 11:37:29;;;;;;;7.25;3.67;;;;;;;;;;4938846;28;20035;-63
2021/09/09 11:40:02;;;;;;;3.43;3.10;;;;;;;;;;4920289;28;20031;-64
2021/09/09 11:42:28;;;;;;;6.90;3.72;;;;;;;;;;4940539;28;20304;-64
2021/09/09 11:44:57;;;;;;;8.48;3.10;;;;;;;;;;4923375;28;20039;-63
2021/09/09 11:47:22;;;;;;;4.20;3.80;;;;;;;;;;4939685;28;21553;-64
2021/09/09 11:49:49;;;;;;;5.87;3.50;;;;;;;;;;4926543;28;20027;-64
2021/09/09 11:52:19;;;;;;;4.15;3.78;;;;;;;;;;4925041;28;20305;-61
2021/09/09 11:54:44;;;;;;;4.30;3.55;;;;;;;;;;4922299;28;20034;-62
2021/09/09 11:57:17;;;;;;;4.25;3.33;;;;;;;;;;4937613;28;20149;-62
2021/09/09 11:59:50;;;;;;;7.55;3.72;;;;;;;;;;4939779;28;20032;-64
2021/09/09 12:02:22;;;;;;;6.57;4.07;;;;;;;;;;4943759;28;20054;-63
2021/09/09 12:04:50;;;;;;;4.97;3.65;;;;;;;;;;4938031;28;20129;-62
2021/09/09 12:07:19;;;;;;;7.75;3.88;;;;;;;;;;4955083;28;20038;-63
2021/09/09 12:10:12;;;;;;;4.15;3.15;;;;;;;;;;4953278;28;20139;-63
2021/09/09 12:12:53;;;;;;;8.20;3.58;;;;;;;;;;4933676;28;20045;-63
2021/09/09 12:15:23;;;;;;;4.35;3.50;;;;;;;;;;4939232;28;20035;-62
2021/09/09 12:17:49;;;;;;;9.73;3.28;;;;;;;;;;4937702;28;20034;-64
2021/09/09 12:20:26;;;;;;;4.30;3.47;;;;;;;;;;4938581;28;20602;-64
2021/09/09 12:22:54;;;;;;;5.38;3.47;;;;;;;;;;4937047;28;20065;-64
2021/09/09 12:25:38;;;;;;;10.30;3.60;;;;;;;;;;4942390;28;20031;-64
2021/09/09 12:28:04;;;;;;;9.13;3.75;;;;;;;;;;4928694;28;20033;-61
2021/09/09 12:30:29;;;;;;;4.60;3.53;;;;;;;;;;4938094;28;20026;-63
2021/09/09 12:32:58;;;;;;;9.82;4.28;;;;;;;;;;4938388;28;20035;-63
2021/09/09 12:35:27;;;;;;;6.18;3.78;;;;;;;;;;4939833;28;20042;-63
2021/09/09 12:38:03;;;;;;;10.70;3.85;;;;;;;;;;4942291;28;20031;-63
2021/09/09 12:40:39;;;;;;;7.85;3.75;;;;;;;;;;4923239;28;20034;-62
2021/09/09 12:43:28;;;;;;;6.57;4.28;;;;;;;;;;4950959;28;20066;-63
2021/09/09 12:45:57;;;;;;;4.50;3.20;;;;;;;;;;4953628;28;20045;-63
2021/09/09 12:48:23;;;;;;;5.05;3.67;;;;;;;;;;4937398;28;20027;-64
2021/09/09 12:51:03;;;;;;;4.53;3.40;;;;;;;;;;4953617;28;21940;-63
2021/09/09 12:53:35;;;;;;;5.53;3.40;;;;;;;;;;4938119;28;20118;-64
2021/09/09 12:56:05;;;;;;;7.18;3.38;;;;;;;;;;4938366;28;20061;-64
2021/09/09 12:58:35;;;;;;;7.18;3.30;;;;;;;;;;4938111;28;20022;-63
2021/09/09 13:01:01;;;;;;;4.60;3.42;;;;;;;;;;4925326;28;20035;-63
2021/09/09 13:03:28;;;;;;;5.60;3.85;;;;;;;;;;4924726;28;20609;-63
2021/09/09 13:05:59;;;;;;;4.85;3.63;;;;;;;;;;4938526;28;20593;-63
2021/09/09 13:08:25;;;;;;;5.70;4.00;;;;;;;;;;4951562;28;20094;-62
2021/09/09 13:10:50;;;;;;;8.70;3.72;;;;;;;;;;4937857;28;20027;-62
2021/09/09 13:13:18;;;;;;;10.45;2.92;;;;;;;;;;4935951;28;20043;-62
2021/09/09 13:15:46;;;;;;;6.22;3.22;;;;;;;;;;4939785;28;20125;-61
2021/09/09 13:18:15;;;;;;;5.30;2.92;;;;;;;;;;4937448;28;20918;-61
2021/09/09 13:20:43;;;;;;;5.57;2.83;;;;;;;;;;4937025;28;20069;-63
2021/09/09 13:23:12;;;;;;;4.82;3.10;;;;;;;;;;4941663;28;20036;-62
2021/09/09 13:25:41;;;;;;;4.13;2.95;;;;;;;;;;4939936;28;20031;-62
2021/09/09 13:28:14;;;;;;;3.85;3.22;;;;;;;;;;4934591;28;20062;-62
2021/09/09 13:30:42;;;;;;;4.45;2.90;;;;;;;;;;4938095;28;20129;-63
2021/09/09 13:33:09;;;;;;;5.00;3.13;;;;;;;;;;4952938;28;20122;-62
2021/09/09 13:35:36;;;;;;;5.40;3.70;;;;;;;;;;4937710;28;20057;-62
2021/09/09 13:38:04;;;;;;;3.95;2.95;;;;;;;;;;4937300;28;20546;-62
2021/09/09 13:40:30;;;;;;;4.60;3.17;;;;;;;;;;4938322;28;20035;-61
2021/09/09 13:42:55;;;;;;;3.58;2.78;;;;;;;;;;4933985;28;20034;-62
2021/09/09 13:45:22;;;;;;;5.90;3.40;;;;;;;;;;4935635;28;20403;-63
2021/09/09 13:47:50;;;;;;;6.22;3.00;;;;;;;;;;4938758;28;20035;-62
2021/09/09 13:50:16;;;;;;;5.82;3.10;;;;;;;;;;4937002;28;20057;-62
2021/09/09 13:52:43;;;;;;;3.75;3.08;;;;;;;;;;4935319;28;20023;-63
2021/09/09 13:55:11;;;;;;;7.80;3.45;;;;;;;;;;4939644;28;20090;-64
2021/09/09 13:57:39;;;;;;;5.43;3.00;;;;;;;;;;4937400;28;20244;-65
2021/09/09 14:00:07;;;;;;;4.32;3.00;;;;;;;;;;4938018;28;20586;-64
2021/09/09 14:02:36;;;;;;;4.25;3.15;;;;;;;;;;4940447;28;20023;-63
2021/09/09 14:05:06;;;;;;;3.33;2.72;;;;;;;;;;4939364;28;20142;-64
2021/09/09 14:07:32;;;;;;;3.95;3.20;;;;;;;;;;4939698;28;20035;-64
2021/09/09 14:09:57;;;;;;;3.50;2.72;;;;;;;;;;4946210;28;20117;-64
2021/09/09 14:12:23;;;;;;;5.45;2.78;;;;;;;;;;4938412;28;20023;-64
2021/09/09 14:14:49;;;;;;;5.65;3.15;;;;;;;;;;4941708;28;20035;-63
2021/09/09 14:17:16;;;;;;;4.90;3.15;;;;;;;;;;4922235;28;20038;-64
2021/09/09 14:19:42;;;;;;;6.00;3.00;;;;;;;;;;4940737;28;20101;-63
2021/09/09 14:22:08;;;;;;;7.40;3.13;;;;;;;;;;4939358;28;20039;-65
2021/09/09 14:24:34;;;;;;;4.30;3.30;;;;;;;;;;4939830;28;20039;-63
2021/09/09 14:26:59;;;;;;;5.37;3.40;;;;;;;;;;4940190;28;20577;-65
2021/09/09 14:29:25;;;;;;;4.07;3.17;;;;;;;;;;4938245;28;21774;-64
2021/09/09 14:31:52;;;;;;;4.43;3.60;;;;;;;;;;4955363;28;20031;-64
2021/09/09 14:34:20;;;;;;;7.10;3.40;;;;;;;;;;4900335;28;1179674;-63
2021/09/09 14:36:46;;;;;;;7.35;3.78;;;;;;;;;;4947756;28;20039;-64
2021/09/09 14:39:14;;;;;;;7.28;3.78;;;;;;;;;;4947511;28;20125;-66
2021/09/09 14:41:39;;;;;;;7.95;3.60;;;;;;;;;;4940656;28;20038;-65